sensor_id;sensor_type;location;lat;lon;timestamp;P1;durP1;ratioP1;P2;durP2;ratioP2
75386;SDS011;63966;47.914;22.266;2024-01-10T00:02:57;24.30;;;8.47;;
75386;SDS011;63966;47.914;22.266;2024-01-10T00:06:00;44.63;;;13.80;;
75386;SDS011;63966;47.914;22.266;2024-01-10T00:09:06;28.38;;;9.95;;
75386;SDS011;63966;47.914;22.266;2024-01-10T00:12:10;42.73;;;12.47;;
75386;SDS011;63966;47.914;22.266;2024-01-10T00:15:14;50.60;;;14.55;;
75386;SDS011;63966;47.914;22.266;2024-01-10T00:18:17;26.63;;;10.25;;
75386;SDS011;63966;47.914;22.266;2024-01-10T00:21:21;20.77;;;6.80;;
75386;SDS011;63966;47.914;22.266;2024-01-10T00:24:24;18.73;;;7.30;;
75386;SDS011;63966;47.914;22.266;2024-01-10T00:27:28;26.17;;;7.43;;
75386;SDS011;63966;47.914;22.266;2024-01-10T00:30:31;17.67;;;7.63;;
75386;SDS011;63966;47.914;22.266;2024-01-10T00:33:35;21.10;;;7.10;;
75386;SDS011;63966;47.914;22.266;2024-01-10T00:36:38;22.67;;;8.48;;
75386;SDS011;63966;47.914;22.266;2024-01-10T00:39:42;21.52;;;8.25;;
75386;SDS011;63966;47.914;22.266;2024-01-10T00:42:45;20.47;;;8.30;;
75386;SDS011;63966;47.914;22.266;2024-01-10T00:45:49;25.88;;;9.48;;
75386;SDS011;63966;47.914;22.266;2024-01-10T00:48:53;20.65;;;7.15;;
75386;SDS011;63966;47.914;22.266;2024-01-10T00:51:56;24.48;;;8.27;;
75386;SDS011;63966;47.914;22.266;2024-01-10T00:54:59;29.67;;;8.82;;
75386;SDS011;63966;47.914;22.266;2024-01-10T00:58:03;23.40;;;8.35;;
75386;SDS011;63966;47.914;22.266;2024-01-10T01:01:06;30.33;;;10.88;;
75386;SDS011;63966;47.914;22.266;2024-01-10T01:04:10;22.80;;;8.93;;
75386;SDS011;63966;47.914;22.266;2024-01-10T01:07:14;46.80;;;13.40;;
75386;SDS011;63966;47.914;22.266;2024-01-10T01:10:17;42.20;;;13.88;;
75386;SDS011;63966;47.914;22.266;2024-01-10T01:13:21;39.17;;;12.83;;
75386;SDS011;63966;47.914;22.266;2024-01-10T01:16:24;36.60;;;10.60;;
75386;SDS011;63966;47.914;22.266;2024-01-10T01:19:28;31.33;;;12.07;;
75386;SDS011;63966;47.914;22.266;2024-01-10T01:22:31;41.35;;;11.93;;
75386;SDS011;63966;47.914;22.266;2024-01-10T01:25:35;36.97;;;13.48;;
75386;SDS011;63966;47.914;22.266;2024-01-10T01:28:38;31.60;;;10.60;;
75386;SDS011;63966;47.914;22.266;2024-01-10T01:31:42;31.73;;;10.73;;
75386;SDS011;63966;47.914;22.266;2024-01-10T01:34:45;28.23;;;8.00;;
75386;SDS011;63966;47.914;22.266;2024-01-10T01:37:49;20.30;;;7.70;;
75386;SDS011;63966;47.914;22.266;2024-01-10T01:40:53;21.58;;;7.43;;
75386;SDS011;63966;47.914;22.266;2024-01-10T01:43:57;23.70;;;8.13;;
75386;SDS011;63966;47.914;22.266;2024-01-10T01:47:01;19.35;;;7.05;;
75386;SDS011;63966;47.914;22.266;2024-01-10T01:50:05;20.73;;;9.23;;
75386;SDS011;63966;47.914;22.266;2024-01-10T01:53:09;27.15;;;10.32;;
75386;SDS011;63966;47.914;22.266;2024-01-10T01:56:13;24.38;;;9.52;;
75386;SDS011;63966;47.914;22.266;2024-01-10T01:59:18;24.30;;;10.30;;
75386;SDS011;63966;47.914;22.266;2024-01-10T02:02:22;33.88;;;11.15;;
75386;SDS011;63966;47.914;22.266;2024-01-10T02:05:27;18.43;;;8.17;;
75386;SDS011;63966;47.914;22.266;2024-01-10T02:08:35;25.15;;;8.82;;
75386;SDS011;63966;47.914;22.266;2024-01-10T02:11:38;27.70;;;10.45;;
75386;SDS011;63966;47.914;22.266;2024-01-10T02:14:42;22.90;;;9.80;;
75386;SDS011;63966;47.914;22.266;2024-01-10T02:17:46;23.27;;;9.18;;
75386;SDS011;63966;47.914;22.266;2024-01-10T02:20:49;20.90;;;7.80;;
75386;SDS011;63966;47.914;22.266;2024-01-10T02:23:54;19.90;;;7.32;;
75386;SDS011;63966;47.914;22.266;2024-01-10T02:26:57;19.80;;;5.85;;
75386;SDS011;63966;47.914;22.266;2024-01-10T02:30:02;16.13;;;6.90;;
75386;SDS011;63966;47.914;22.266;2024-01-10T02:33:06;19.33;;;8.07;;
75386;SDS011;63966;47.914;22.266;2024-01-10T02:36:10;17.63;;;7.17;;
75386;SDS011;63966;47.914;22.266;2024-01-10T02:39:13;19.13;;;6.40;;
75386;SDS011;63966;47.914;22.266;2024-01-10T02:42:17;13.40;;;4.93;;
75386;SDS011;63966;47.914;22.266;2024-01-10T02:45:20;15.40;;;6.50;;
75386;SDS011;63966;47.914;22.266;2024-01-10T02:48:23;19.38;;;6.72;;
75386;SDS011;63966;47.914;22.266;2024-01-10T02:51:27;21.45;;;7.03;;
75386;SDS011;63966;47.914;22.266;2024-01-10T02:54:32;17.92;;;6.65;;
75386;SDS011;63966;47.914;22.266;2024-01-10T02:57:35;15.95;;;7.05;;
75386;SDS011;63966;47.914;22.266;2024-01-10T03:00:39;20.80;;;6.40;;
75386;SDS011;63966;47.914;22.266;2024-01-10T03:03:42;15.55;;;7.13;;
75386;SDS011;63966;47.914;22.266;2024-01-10T03:06:46;19.53;;;6.97;;
75386;SDS011;63966;47.914;22.266;2024-01-10T03:09:49;19.08;;;7.95;;
75386;SDS011;63966;47.914;22.266;2024-01-10T03:12:53;18.15;;;6.88;;
75386;SDS011;63966;47.914;22.266;2024-01-10T03:15:56;20.77;;;8.17;;
75386;SDS011;63966;47.914;22.266;2024-01-10T03:19:01;15.98;;;6.95;;
75386;SDS011;63966;47.914;22.266;2024-01-10T03:22:05;18.23;;;6.40;;
75386;SDS011;63966;47.914;22.266;2024-01-10T03:25:08;16.60;;;6.55;;
75386;SDS011;63966;47.914;22.266;2024-01-10T03:28:14;17.55;;;6.32;;
75386;SDS011;63966;47.914;22.266;2024-01-10T03:31:19;17.35;;;7.65;;
75386;SDS011;63966;47.914;22.266;2024-01-10T03:34:23;21.45;;;9.02;;
75386;SDS011;63966;47.914;22.266;2024-01-10T03:37:27;22.63;;;8.37;;
75386;SDS011;63966;47.914;22.266;2024-01-10T03:40:30;23.80;;;8.23;;
75386;SDS011;63966;47.914;22.266;2024-01-10T03:43:34;15.20;;;7.00;;
75386;SDS011;63966;47.914;22.266;2024-01-10T03:46:37;16.83;;;6.17;;
75386;SDS011;63966;47.914;22.266;2024-01-10T03:49:41;17.65;;;6.72;;
75386;SDS011;63966;47.914;22.266;2024-01-10T03:52:45;21.70;;;7.15;;
75386;SDS011;63966;47.914;22.266;2024-01-10T03:55:49;17.05;;;6.68;;
75386;SDS011;63966;47.914;22.266;2024-01-10T03:58:52;11.93;;;5.32;;
75386;SDS011;63966;47.914;22.266;2024-01-10T04:01:55;13.95;;;6.35;;
75386;SDS011;63966;47.914;22.266;2024-01-10T04:04:59;20.65;;;7.03;;
75386;SDS011;63966;47.914;22.266;2024-01-10T04:08:03;22.47;;;8.77;;
75386;SDS011;63966;47.914;22.266;2024-01-10T04:11:07;15.23;;;6.50;;
75386;SDS011;63966;47.914;22.266;2024-01-10T04:14:11;25.85;;;8.23;;
75386;SDS011;63966;47.914;22.266;2024-01-10T04:17:14;33.67;;;8.53;;
75386;SDS011;63966;47.914;22.266;2024-01-10T04:20:18;25.48;;;7.78;;
75386;SDS011;63966;47.914;22.266;2024-01-10T04:23:22;29.98;;;8.98;;
75386;SDS011;63966;47.914;22.266;2024-01-10T04:26:25;22.13;;;8.02;;
75386;SDS011;63966;47.914;22.266;2024-01-10T04:29:28;35.50;;;9.18;;
75386;SDS011;63966;47.914;22.266;2024-01-10T04:32:32;19.90;;;7.35;;
75386;SDS011;63966;47.914;22.266;2024-01-10T04:35:35;25.20;;;8.43;;
75386;SDS011;63966;47.914;22.266;2024-01-10T04:38:39;19.57;;;7.17;;
75386;SDS011;63966;47.914;22.266;2024-01-10T04:41:42;17.60;;;7.07;;
75386;SDS011;63966;47.914;22.266;2024-01-10T04:44:46;23.55;;;7.85;;
75386;SDS011;63966;47.914;22.266;2024-01-10T04:47:49;19.33;;;6.87;;
75386;SDS011;63966;47.914;22.266;2024-01-10T04:50:53;16.50;;;7.22;;
75386;SDS011;63966;47.914;22.266;2024-01-10T04:53:56;19.45;;;7.80;;
75386;SDS011;63966;47.914;22.266;2024-01-10T04:57:00;16.85;;;6.53;;
75386;SDS011;63966;47.914;22.266;2024-01-10T05:00:03;20.13;;;6.45;;
75386;SDS011;63966;47.914;22.266;2024-01-10T05:03:09;17.95;;;7.38;;
75386;SDS011;63966;47.914;22.266;2024-01-10T05:06:12;18.98;;;6.88;;
75386;SDS011;63966;47.914;22.266;2024-01-10T05:09:16;22.47;;;7.30;;
75386;SDS011;63966;47.914;22.266;2024-01-10T05:12:20;22.20;;;6.82;;
75386;SDS011;63966;47.914;22.266;2024-01-10T05:15:23;19.75;;;7.03;;
75386;SDS011;63966;47.914;22.266;2024-01-10T05:18:27;18.37;;;7.50;;
75386;SDS011;63966;47.914;22.266;2024-01-10T05:21:31;20.50;;;7.60;;
75386;SDS011;63966;47.914;22.266;2024-01-10T05:24:35;24.63;;;7.28;;
75386;SDS011;63966;47.914;22.266;2024-01-10T05:27:39;22.38;;;9.10;;
75386;SDS011;63966;47.914;22.266;2024-01-10T05:30:42;19.67;;;7.88;;
75386;SDS011;63966;47.914;22.266;2024-01-10T05:33:46;22.30;;;9.05;;
75386;SDS011;63966;47.914;22.266;2024-01-10T05:36:49;21.50;;;9.38;;
75386;SDS011;63966;47.914;22.266;2024-01-10T05:39:53;50.50;;;17.93;;
75386;SDS011;63966;47.914;22.266;2024-01-10T05:42:56;35.70;;;11.85;;
75386;SDS011;63966;47.914;22.266;2024-01-10T05:46:03;63.60;;;17.92;;
75386;SDS011;63966;47.914;22.266;2024-01-10T05:49:07;77.97;;;23.37;;
75386;SDS011;63966;47.914;22.266;2024-01-10T05:52:11;105.25;;;33.35;;
75386;SDS011;63966;47.914;22.266;2024-01-10T05:55:15;273.90;;;75.70;;
75386;SDS011;63966;47.914;22.266;2024-01-10T05:58:18;413.75;;;116.20;;
75386;SDS011;63966;47.914;22.266;2024-01-10T06:01:22;366.02;;;110.03;;
75386;SDS011;63966;47.914;22.266;2024-01-10T06:04:26;256.63;;;74.13;;
75386;SDS011;63966;47.914;22.266;2024-01-10T06:07:30;182.50;;;49.75;;
75386;SDS011;63966;47.914;22.266;2024-01-10T06:10:34;89.50;;;24.50;;
75386;SDS011;63966;47.914;22.266;2024-01-10T06:13:39;52.45;;;18.58;;
75386;SDS011;63966;47.914;22.266;2024-01-10T06:16:55;67.93;;;23.13;;
75386;SDS011;63966;47.914;22.266;2024-01-10T06:20:01;75.83;;;25.60;;
75386;SDS011;63966;47.914;22.266;2024-01-10T06:23:06;83.88;;;24.50;;
75386;SDS011;63966;47.914;22.266;2024-01-10T06:26:10;73.45;;;21.60;;
75386;SDS011;63966;47.914;22.266;2024-01-10T06:29:13;47.88;;;14.98;;
75386;SDS011;63966;47.914;22.266;2024-01-10T06:32:17;28.10;;;12.55;;
75386;SDS011;63966;47.914;22.266;2024-01-10T06:35:20;40.85;;;11.38;;
75386;SDS011;63966;47.914;22.266;2024-01-10T06:38:24;34.65;;;11.85;;
75386;SDS011;63966;47.914;22.266;2024-01-10T06:41:28;36.83;;;11.60;;
75386;SDS011;63966;47.914;22.266;2024-01-10T06:44:31;41.50;;;14.00;;
75386;SDS011;63966;47.914;22.266;2024-01-10T06:47:35;35.72;;;12.90;;
75386;SDS011;63966;47.914;22.266;2024-01-10T06:50:40;36.83;;;14.40;;
75386;SDS011;63966;47.914;22.266;2024-01-10T06:53:44;38.88;;;15.55;;
75386;SDS011;63966;47.914;22.266;2024-01-10T06:56:48;70.25;;;22.20;;
75386;SDS011;63966;47.914;22.266;2024-01-10T06:59:53;85.38;;;28.65;;
75386;SDS011;63966;47.914;22.266;2024-01-10T07:03:00;106.18;;;38.28;;
75386;SDS011;63966;47.914;22.266;2024-01-10T07:06:06;99.25;;;30.02;;
75386;SDS011;63966;47.914;22.266;2024-01-10T07:09:14;73.20;;;24.60;;
75386;SDS011;63966;47.914;22.266;2024-01-10T07:12:23;66.97;;;24.67;;
75386;SDS011;63966;47.914;22.266;2024-01-10T07:15:29;55.63;;;20.52;;
75386;SDS011;63966;47.914;22.266;2024-01-10T07:18:34;55.17;;;20.38;;
75386;SDS011;63966;47.914;22.266;2024-01-10T07:21:40;69.43;;;23.10;;
75386;SDS011;63966;47.914;22.266;2024-01-10T07:24:45;79.75;;;30.30;;
75386;SDS011;63966;47.914;22.266;2024-01-10T07:27:49;44.13;;;18.50;;
75386;SDS011;63966;47.914;22.266;2024-01-10T07:30:53;51.08;;;21.27;;
75386;SDS011;63966;47.914;22.266;2024-01-10T07:33:57;60.42;;;25.30;;
75386;SDS011;63966;47.914;22.266;2024-01-10T07:37:00;74.18;;;28.73;;
75386;SDS011;63966;47.914;22.266;2024-01-10T07:40:05;68.72;;;30.27;;
75386;SDS011;63966;47.914;22.266;2024-01-10T07:43:29;59.83;;;25.20;;
75386;SDS011;63966;47.914;22.266;2024-01-10T07:46:32;73.30;;;30.08;;
75386;SDS011;63966;47.914;22.266;2024-01-10T07:49:36;56.13;;;24.73;;
75386;SDS011;63966;47.914;22.266;2024-01-10T07:52:40;55.72;;;23.75;;
75386;SDS011;63966;47.914;22.266;2024-01-10T07:55:45;58.67;;;24.23;;
75386;SDS011;63966;47.914;22.266;2024-01-10T07:58:48;55.83;;;24.38;;
75386;SDS011;63966;47.914;22.266;2024-01-10T08:01:56;74.85;;;28.48;;
75386;SDS011;63966;47.914;22.266;2024-01-10T08:05:02;80.38;;;28.17;;
75386;SDS011;63966;47.914;22.266;2024-01-10T08:08:12;68.75;;;27.75;;
75386;SDS011;63966;47.914;22.266;2024-01-10T08:11:16;58.58;;;25.10;;
75386;SDS011;63966;47.914;22.266;2024-01-10T08:14:19;50.72;;;22.90;;
75386;SDS011;63966;47.914;22.266;2024-01-10T08:17:23;54.43;;;24.87;;
75386;SDS011;63966;47.914;22.266;2024-01-10T08:20:27;52.55;;;22.02;;
75386;SDS011;63966;47.914;22.266;2024-01-10T08:23:31;49.17;;;21.40;;
75386;SDS011;63966;47.914;22.266;2024-01-10T08:26:34;50.92;;;21.15;;
75386;SDS011;63966;47.914;22.266;2024-01-10T08:29:40;41.85;;;18.73;;
75386;SDS011;63966;47.914;22.266;2024-01-10T08:32:43;44.58;;;19.50;;
75386;SDS011;63966;47.914;22.266;2024-01-10T08:35:47;38.58;;;18.33;;
75386;SDS011;63966;47.914;22.266;2024-01-10T08:38:50;43.80;;;17.37;;
75386;SDS011;63966;47.914;22.266;2024-01-10T08:41:54;43.42;;;16.25;;
75386;SDS011;63966;47.914;22.266;2024-01-10T08:44:57;36.72;;;14.98;;
75386;SDS011;63966;47.914;22.266;2024-01-10T08:48:01;32.50;;;13.87;;
75386;SDS011;63966;47.914;22.266;2024-01-10T08:51:07;33.38;;;13.65;;
75386;SDS011;63966;47.914;22.266;2024-01-10T08:54:12;31.48;;;13.75;;
75386;SDS011;63966;47.914;22.266;2024-01-10T08:57:19;31.08;;;13.20;;
75386;SDS011;63966;47.914;22.266;2024-01-10T09:00:22;26.60;;;12.43;;
75386;SDS011;63966;47.914;22.266;2024-01-10T09:03:26;33.17;;;13.63;;
75386;SDS011;63966;47.914;22.266;2024-01-10T09:06:31;31.88;;;14.88;;
75386;SDS011;63966;47.914;22.266;2024-01-10T09:09:35;33.67;;;15.30;;
75386;SDS011;63966;47.914;22.266;2024-01-10T09:12:38;35.42;;;15.18;;
75386;SDS011;63966;47.914;22.266;2024-01-10T09:15:46;37.30;;;15.68;;
75386;SDS011;63966;47.914;22.266;2024-01-10T09:18:50;37.63;;;15.80;;
75386;SDS011;63966;47.914;22.266;2024-01-10T09:21:56;32.10;;;15.40;;
75386;SDS011;63966;47.914;22.266;2024-01-10T09:25:00;36.30;;;15.73;;
75386;SDS011;63966;47.914;22.266;2024-01-10T09:28:06;40.95;;;16.65;;
75386;SDS011;63966;47.914;22.266;2024-01-10T09:31:09;34.73;;;15.37;;
75386;SDS011;63966;47.914;22.266;2024-01-10T09:34:13;38.05;;;16.58;;
75386;SDS011;63966;47.914;22.266;2024-01-10T09:37:17;36.42;;;16.80;;
75386;SDS011;63966;47.914;22.266;2024-01-10T09:40:20;37.17;;;17.00;;
75386;SDS011;63966;47.914;22.266;2024-01-10T09:43:26;36.85;;;15.85;;
75386;SDS011;63966;47.914;22.266;2024-01-10T09:46:30;33.83;;;15.30;;
75386;SDS011;63966;47.914;22.266;2024-01-10T09:49:36;39.95;;;16.45;;
75386;SDS011;63966;47.914;22.266;2024-01-10T09:52:48;38.83;;;16.63;;
75386;SDS011;63966;47.914;22.266;2024-01-10T09:55:54;43.13;;;18.23;;
75386;SDS011;63966;47.914;22.266;2024-01-10T09:59:02;31.58;;;16.38;;
75386;SDS011;63966;47.914;22.266;2024-01-10T10:02:08;36.40;;;17.27;;
75386;SDS011;63966;47.914;22.266;2024-01-10T10:05:16;40.78;;;17.08;;
75386;SDS011;63966;47.914;22.266;2024-01-10T10:08:22;42.33;;;16.70;;
75386;SDS011;63966;47.914;22.266;2024-01-10T10:11:26;37.83;;;17.67;;
75386;SDS011;63966;47.914;22.266;2024-01-10T10:14:29;42.90;;;17.73;;
75386;SDS011;63966;47.914;22.266;2024-01-10T10:17:33;39.60;;;17.05;;
75386;SDS011;63966;47.914;22.266;2024-01-10T10:20:37;36.35;;;16.83;;
75386;SDS011;63966;47.914;22.266;2024-01-10T10:23:41;37.70;;;16.98;;
75386;SDS011;63966;47.914;22.266;2024-01-10T10:27:01;42.78;;;18.30;;
75386;SDS011;63966;47.914;22.266;2024-01-10T10:30:11;41.37;;;18.90;;
75386;SDS011;63966;47.914;22.266;2024-01-10T10:33:15;44.63;;;20.25;;
75386;SDS011;63966;47.914;22.266;2024-01-10T10:36:21;39.97;;;18.95;;
75386;SDS011;63966;47.914;22.266;2024-01-10T10:39:24;44.05;;;19.15;;
75386;SDS011;63966;47.914;22.266;2024-01-10T10:42:28;40.10;;;20.53;;
75386;SDS011;63966;47.914;22.266;2024-01-10T10:45:33;55.92;;;22.60;;
75386;SDS011;63966;47.914;22.266;2024-01-10T10:48:37;41.60;;;20.42;;
75386;SDS011;63966;47.914;22.266;2024-01-10T10:51:41;42.65;;;21.25;;
75386;SDS011;63966;47.914;22.266;2024-01-10T10:54:45;48.43;;;23.23;;
75386;SDS011;63966;47.914;22.266;2024-01-10T10:57:50;57.03;;;24.02;;
75386;SDS011;63966;47.914;22.266;2024-01-10T11:01:06;63.28;;;23.83;;
75386;SDS011;63966;47.914;22.266;2024-01-10T11:04:11;48.35;;;22.25;;
75386;SDS011;63966;47.914;22.266;2024-01-10T11:07:16;44.40;;;20.77;;
75386;SDS011;63966;47.914;22.266;2024-01-10T11:10:21;45.77;;;21.23;;
75386;SDS011;63966;47.914;22.266;2024-01-10T11:17:19;41.63;;;20.23;;
75386;SDS011;63966;47.914;22.266;2024-01-10T11:24:13;40.15;;;18.92;;
75386;SDS011;63966;47.914;22.266;2024-01-10T11:27:16;44.88;;;20.25;;
75386;SDS011;63966;47.914;22.266;2024-01-10T11:30:37;44.17;;;19.88;;
75386;SDS011;63966;47.914;22.266;2024-01-10T11:33:51;132.53;;;36.47;;
75386;SDS011;63966;47.914;22.266;2024-01-10T11:37:10;43.15;;;20.05;;
75386;SDS011;63966;47.914;22.266;2024-01-10T11:40:14;48.53;;;20.92;;
75386;SDS011;63966;47.914;22.266;2024-01-10T11:43:26;48.58;;;19.77;;
75386;SDS011;63966;47.914;22.266;2024-01-10T11:46:34;40.23;;;19.43;;
75386;SDS011;63966;47.914;22.266;2024-01-10T11:49:41;54.35;;;22.70;;
75386;SDS011;63966;47.914;22.266;2024-01-10T11:52:57;44.42;;;20.50;;
75386;SDS011;63966;47.914;22.266;2024-01-10T11:56:05;42.95;;;20.70;;
75386;SDS011;63966;47.914;22.266;2024-01-10T11:59:30;43.80;;;21.50;;
75386;SDS011;63966;47.914;22.266;2024-01-10T12:02:35;40.93;;;20.60;;
75386;SDS011;63966;47.914;22.266;2024-01-10T12:05:39;80.40;;;28.98;;
75386;SDS011;63966;47.914;22.266;2024-01-10T12:08:44;47.40;;;22.17;;
75386;SDS011;63966;47.914;22.266;2024-01-10T12:11:48;42.78;;;20.08;;
75386;SDS011;63966;47.914;22.266;2024-01-10T12:14:52;44.63;;;20.77;;
75386;SDS011;63966;47.914;22.266;2024-01-10T12:17:55;40.60;;;19.43;;
75386;SDS011;63966;47.914;22.266;2024-01-10T12:20:59;47.15;;;19.80;;
75386;SDS011;63966;47.914;22.266;2024-01-10T12:24:05;38.08;;;18.85;;
75386;SDS011;63966;47.914;22.266;2024-01-10T12:27:08;36.90;;;17.20;;
75386;SDS011;63966;47.914;22.266;2024-01-10T12:30:12;33.90;;;16.67;;
75386;SDS011;63966;47.914;22.266;2024-01-10T12:33:18;33.13;;;16.13;;
75386;SDS011;63966;47.914;22.266;2024-01-10T12:36:26;36.00;;;16.20;;
75386;SDS011;63966;47.914;22.266;2024-01-10T12:39:29;31.60;;;15.43;;
75386;SDS011;63966;47.914;22.266;2024-01-10T12:42:33;39.00;;;17.33;;
75386;SDS011;63966;47.914;22.266;2024-01-10T12:45:38;34.10;;;17.43;;
75386;SDS011;63966;47.914;22.266;2024-01-10T12:48:43;38.33;;;17.42;;
75386;SDS011;63966;47.914;22.266;2024-01-10T12:51:47;40.72;;;17.60;;
75386;SDS011;63966;47.914;22.266;2024-01-10T12:54:52;32.53;;;16.10;;
75386;SDS011;63966;47.914;22.266;2024-01-10T12:57:57;38.67;;;17.90;;
75386;SDS011;63966;47.914;22.266;2024-01-10T13:01:10;32.30;;;14.50;;
75386;SDS011;63966;47.914;22.266;2024-01-10T13:04:14;35.58;;;15.52;;
75386;SDS011;63966;47.914;22.266;2024-01-10T13:07:18;35.42;;;16.27;;
75386;SDS011;63966;47.914;22.266;2024-01-10T13:10:22;31.75;;;15.18;;
75386;SDS011;63966;47.914;22.266;2024-01-10T13:13:26;41.63;;;17.30;;
75386;SDS011;63966;47.914;22.266;2024-01-10T13:16:30;45.17;;;19.23;;
75386;SDS011;63966;47.914;22.266;2024-01-10T13:19:47;45.22;;;19.00;;
75386;SDS011;63966;47.914;22.266;2024-01-10T13:22:51;37.67;;;18.23;;
75386;SDS011;63966;47.914;22.266;2024-01-10T13:25:55;37.30;;;19.23;;
75386;SDS011;63966;47.914;22.266;2024-01-10T13:28:58;39.97;;;19.20;;
75386;SDS011;63966;47.914;22.266;2024-01-10T13:32:05;40.85;;;19.90;;
75386;SDS011;63966;47.914;22.266;2024-01-10T13:35:09;42.95;;;18.45;;
75386;SDS011;63966;47.914;22.266;2024-01-10T13:38:13;38.72;;;18.77;;
75386;SDS011;63966;47.914;22.266;2024-01-10T13:41:16;33.28;;;16.95;;
75386;SDS011;63966;47.914;22.266;2024-01-10T13:44:20;39.03;;;18.67;;
75386;SDS011;63966;47.914;22.266;2024-01-10T13:47:24;43.17;;;19.15;;
75386;SDS011;63966;47.914;22.266;2024-01-10T13:50:27;42.90;;;17.83;;
75386;SDS011;63966;47.914;22.266;2024-01-10T13:53:32;35.90;;;17.75;;
75386;SDS011;63966;47.914;22.266;2024-01-10T13:56:36;35.15;;;17.05;;
75386;SDS011;63966;47.914;22.266;2024-01-10T13:59:42;34.27;;;16.00;;
75386;SDS011;63966;47.914;22.266;2024-01-10T14:02:46;41.85;;;19.42;;
75386;SDS011;63966;47.914;22.266;2024-01-10T14:05:49;44.95;;;19.13;;
75386;SDS011;63966;47.914;22.266;2024-01-10T14:08:53;42.13;;;20.02;;
75386;SDS011;63966;47.914;22.266;2024-01-10T14:11:57;44.57;;;21.17;;
75386;SDS011;63966;47.914;22.266;2024-01-10T14:15:01;43.95;;;20.42;;
75386;SDS011;63966;47.914;22.266;2024-01-10T14:18:05;45.60;;;19.27;;
75386;SDS011;63966;47.914;22.266;2024-01-10T14:21:09;44.80;;;18.85;;
75386;SDS011;63966;47.914;22.266;2024-01-10T14:24:13;43.70;;;18.50;;
75386;SDS011;63966;47.914;22.266;2024-01-10T14:27:17;36.35;;;17.10;;
75386;SDS011;63966;47.914;22.266;2024-01-10T14:30:23;40.88;;;18.52;;
75386;SDS011;63966;47.914;22.266;2024-01-10T14:33:27;46.85;;;18.70;;
75386;SDS011;63966;47.914;22.266;2024-01-10T14:36:31;45.50;;;19.60;;
75386;SDS011;63966;47.914;22.266;2024-01-10T14:39:35;51.13;;;19.92;;
75386;SDS011;63966;47.914;22.266;2024-01-10T14:42:41;41.13;;;18.83;;
75386;SDS011;63966;47.914;22.266;2024-01-10T14:45:45;40.63;;;19.00;;
75386;SDS011;63966;47.914;22.266;2024-01-10T14:48:48;49.83;;;20.67;;
75386;SDS011;63966;47.914;22.266;2024-01-10T14:51:52;47.35;;;20.38;;
75386;SDS011;63966;47.914;22.266;2024-01-10T14:54:56;47.67;;;19.25;;
75386;SDS011;63966;47.914;22.266;2024-01-10T14:57:59;55.53;;;20.63;;
75386;SDS011;63966;47.914;22.266;2024-01-10T15:01:03;39.80;;;18.80;;
75386;SDS011;63966;47.914;22.266;2024-01-10T15:04:11;50.35;;;19.50;;
75386;SDS011;63966;47.914;22.266;2024-01-10T15:07:15;42.75;;;19.55;;
75386;SDS011;63966;47.914;22.266;2024-01-10T15:10:19;46.70;;;19.77;;
75386;SDS011;63966;47.914;22.266;2024-01-10T15:13:23;39.70;;;15.95;;
75386;SDS011;63966;47.914;22.266;2024-01-10T15:16:26;50.67;;;18.88;;
75386;SDS011;63966;47.914;22.266;2024-01-10T15:19:30;47.08;;;19.45;;
75386;SDS011;63966;47.914;22.266;2024-01-10T15:22:34;46.20;;;18.20;;
75386;SDS011;63966;47.914;22.266;2024-01-10T15:25:39;45.13;;;19.77;;
75386;SDS011;63966;47.914;22.266;2024-01-10T15:28:43;47.72;;;19.35;;
75386;SDS011;63966;47.914;22.266;2024-01-10T15:31:47;45.20;;;19.33;;
75386;SDS011;63966;47.914;22.266;2024-01-10T15:34:51;52.58;;;20.83;;
75386;SDS011;63966;47.914;22.266;2024-01-10T15:37:55;53.10;;;20.33;;
75386;SDS011;63966;47.914;22.266;2024-01-10T15:40:58;53.10;;;19.38;;
75386;SDS011;63966;47.914;22.266;2024-01-10T15:44:04;59.60;;;24.37;;
75386;SDS011;63966;47.914;22.266;2024-01-10T15:47:08;54.60;;;22.30;;
75386;SDS011;63966;47.914;22.266;2024-01-10T15:50:12;49.20;;;19.33;;
75386;SDS011;63966;47.914;22.266;2024-01-10T15:53:15;45.88;;;18.33;;
75386;SDS011;63966;47.914;22.266;2024-01-10T15:56:24;50.70;;;19.17;;
75386;SDS011;63966;47.914;22.266;2024-01-10T15:59:29;46.95;;;18.98;;
75386;SDS011;63966;47.914;22.266;2024-01-10T16:02:32;45.28;;;17.95;;
75386;SDS011;63966;47.914;22.266;2024-01-10T16:05:37;50.47;;;19.20;;
75386;SDS011;63966;47.914;22.266;2024-01-10T16:08:41;43.80;;;17.65;;
75386;SDS011;63966;47.914;22.266;2024-01-10T16:11:45;46.55;;;18.92;;
75386;SDS011;63966;47.914;22.266;2024-01-10T16:14:49;47.10;;;18.77;;
75386;SDS011;63966;47.914;22.266;2024-01-10T16:17:52;51.40;;;21.90;;
75386;SDS011;63966;47.914;22.266;2024-01-10T16:20:56;69.72;;;28.33;;
75386;SDS011;63966;47.914;22.266;2024-01-10T16:24:00;73.72;;;31.20;;
75386;SDS011;63966;47.914;22.266;2024-01-10T16:27:03;70.87;;;31.77;;
75386;SDS011;63966;47.914;22.266;2024-01-10T16:30:08;71.05;;;29.65;;
75386;SDS011;63966;47.914;22.266;2024-01-10T16:33:12;74.55;;;31.95;;
75386;SDS011;63966;47.914;22.266;2024-01-10T16:36:15;64.95;;;27.23;;
75386;SDS011;63966;47.914;22.266;2024-01-10T16:39:19;64.57;;;27.47;;
75386;SDS011;63966;47.914;22.266;2024-01-10T16:42:23;68.03;;;28.23;;
75386;SDS011;63966;47.914;22.266;2024-01-10T16:45:26;70.10;;;29.13;;
75386;SDS011;63966;47.914;22.266;2024-01-10T16:48:29;65.72;;;26.98;;
75386;SDS011;63966;47.914;22.266;2024-01-10T16:51:36;89.88;;;34.38;;
75386;SDS011;63966;47.914;22.266;2024-01-10T16:54:40;85.65;;;32.80;;
75386;SDS011;63966;47.914;22.266;2024-01-10T16:57:44;86.20;;;34.03;;
75386;SDS011;63966;47.914;22.266;2024-01-10T17:00:48;95.30;;;36.97;;
75386;SDS011;63966;47.914;22.266;2024-01-10T17:03:52;96.15;;;37.30;;
75386;SDS011;63966;47.914;22.266;2024-01-10T17:06:57;121.10;;;43.83;;
75386;SDS011;63966;47.914;22.266;2024-01-10T17:10:02;111.50;;;40.40;;
75386;SDS011;63966;47.914;22.266;2024-01-10T17:13:06;104.32;;;39.75;;
75386;SDS011;63966;47.914;22.266;2024-01-10T17:16:09;104.78;;;37.97;;
75386;SDS011;63966;47.914;22.266;2024-01-10T17:19:13;103.47;;;37.38;;
75386;SDS011;63966;47.914;22.266;2024-01-10T17:22:17;89.13;;;32.88;;
75386;SDS011;63966;47.914;22.266;2024-01-10T17:25:20;71.82;;;31.77;;
75386;SDS011;63966;47.914;22.266;2024-01-10T17:28:26;85.22;;;32.38;;
75386;SDS011;63966;47.914;22.266;2024-01-10T17:31:30;69.33;;;26.07;;
75386;SDS011;63966;47.914;22.266;2024-01-10T17:34:34;61.88;;;24.95;;
75386;SDS011;63966;47.914;22.266;2024-01-10T17:37:38;57.55;;;24.30;;
75386;SDS011;63966;47.914;22.266;2024-01-10T17:40:42;65.03;;;25.07;;
75386;SDS011;63966;47.914;22.266;2024-01-10T17:43:46;59.45;;;25.77;;
75386;SDS011;63966;47.914;22.266;2024-01-10T17:46:50;59.00;;;25.35;;
75386;SDS011;63966;47.914;22.266;2024-01-10T17:49:54;66.68;;;25.63;;
75386;SDS011;63966;47.914;22.266;2024-01-10T17:52:58;69.13;;;27.17;;
75386;SDS011;63966;47.914;22.266;2024-01-10T17:56:03;62.10;;;26.83;;